createdAt,value
2018-07-09T00:00:17.008Z,13.50
2018-07-09T00:02:45.675Z,13.50
2018-07-09T00:05:14.409Z,13.40
2018-07-09T00:07:43.111Z,13.40
2018-07-09T00:10:12.799Z,13.30
2018-07-09T00:12:41.535Z,13.20
2018-07-09T00:15:10.254Z,13.20
2018-07-09T00:17:38.925Z,13.20
2018-07-09T00:20:07.634Z,13.10
2018-07-09T00:22:36.412Z,13.00
2018-07-09T00:25:05.171Z,13.00
2018-07-09T00:27:40.465Z,13.00
2018-07-09T00:30:09.169Z,12.90
2018-07-09T00:32:37.895Z,12.90
2018-07-09T00:35:06.658Z,12.80
2018-07-09T00:37:35.802Z,12.80
2018-07-09T00:40:04.891Z,12.70
2018-07-09T00:42:33.813Z,12.60
2018-07-09T00:45:02.561Z,12.60
2018-07-09T00:47:31.271Z,12.50
2018-07-09T00:50:00.066Z,12.50
2018-07-09T00:52:28.797Z,12.40
2018-07-09T00:54:57.785Z,12.40
2018-07-09T00:57:26.543Z,12.30
2018-07-09T00:59:55.270Z,12.30
2018-07-09T01:02:23.921Z,12.30
2018-07-09T01:07:21.073Z,12.20
2018-07-09T01:09:49.844Z,12.10
2018-07-09T01:12:18.568Z,12.10
2018-07-09T01:19:43.995Z,11.90
2018-07-09T01:22:12.744Z,11.80
2018-07-09T01:24:41.481Z,11.70
2018-07-09T01:27:10.282Z,11.60
2018-07-09T01:29:39.023Z,11.60
2018-07-09T01:32:07.730Z,11.50
2018-07-09T01:34:36.526Z,11.40
2018-07-09T01:37:05.192Z,11.40
2018-07-09T01:39:33.875Z,11.30
2018-07-09T01:42:02.571Z,11.20
2018-07-09T01:44:31.257Z,11.20
2018-07-09T01:46:59.937Z,11.10
2018-07-09T01:49:28.637Z,11.00
2018-07-09T01:51:57.355Z,11.00
2018-07-09T01:54:26.021Z,10.90
2018-07-09T01:56:54.839Z,10.80
2018-07-09T01:59:23.511Z,10.90
2018-07-09T02:01:52.165Z,10.80
2018-07-09T02:04:20.879Z,10.80
2018-07-09T02:06:49.626Z,10.60
2018-07-09T02:09:18.393Z,10.60
2018-07-09T02:11:47.052Z,10.50
2018-07-09T02:14:15.740Z,10.30
2018-07-09T02:16:44.459Z,10.20
2018-07-09T02:19:13.120Z,10.20
2018-07-09T02:21:41.804Z,10.10
2018-07-09T02:24:10.495Z,10.00
2018-07-09T02:26:39.139Z,10.00
2018-07-09T02:31:36.124Z,10.00
2018-07-09T02:34:04.821Z,10.00
2018-07-09T02:36:33.513Z,10.00
2018-07-09T02:39:02.843Z,9.80
2018-07-09T02:41:31.506Z,9.80
2018-07-09T02:44:00.191Z,9.80
2018-07-09T02:46:28.908Z,9.80
2018-07-09T02:48:57.571Z,9.70
2018-07-09T02:51:26.219Z,9.70
2018-07-09T02:53:54.915Z,9.60
2018-07-09T02:56:23.603Z,9.60
2018-07-09T02:58:52.290Z,9.60
2018-07-09T03:01:20.960Z,9.60
2018-07-09T03:03:49.638Z,9.60
2018-07-09T03:06:18.345Z,9.60
2018-07-09T03:08:46.950Z,9.50
2018-07-09T03:11:15.608Z,9.50
2018-07-09T03:13:44.278Z,9.50
2018-07-09T03:16:12.930Z,9.60
2018-07-09T03:18:41.642Z,9.50
2018-07-09T03:21:10.301Z,9.50
2018-07-09T03:23:39.055Z,9.40
2018-07-09T03:26:07.759Z,9.30
2018-07-09T03:28:36.412Z,9.30
2018-07-09T03:31:05.199Z,9.20
2018-07-09T03:33:33.862Z,9.20
2018-07-09T03:36:02.563Z,9.20
2018-07-09T03:38:31.203Z,9.20
2018-07-09T03:40:59.911Z,9.20
2018-07-09T03:43:28.523Z,9.30
2018-07-09T03:45:57.175Z,9.30
2018-07-09T03:48:25.847Z,9.30
2018-07-09T03:50:54.559Z,9.40
2018-07-09T03:53:23.195Z,9.40
2018-07-09T03:55:51.897Z,9.40
2018-07-09T03:58:20.555Z,9.40
2018-07-09T04:00:49.397Z,9.40
2018-07-09T04:03:18.098Z,9.50
2018-07-09T04:05:46.763Z,9.60
2018-07-09T04:08:15.398Z,9.60
2018-07-09T04:10:44.153Z,9.70
2018-07-09T04:13:12.802Z,9.80
2018-07-09T04:15:41.427Z,9.80
2018-07-09T04:18:10.117Z,9.70
2018-07-09T04:20:38.788Z,9.70
2018-07-09T04:23:07.430Z,9.80
2018-07-09T04:25:36.070Z,9.80
2018-07-09T04:28:04.845Z,9.90
2018-07-09T04:30:33.541Z,9.90
2018-07-09T04:33:02.206Z,10.00
2018-07-09T04:35:30.867Z,10.10
2018-07-09T04:37:59.571Z,10.20
2018-07-09T04:40:28.248Z,10.30
2018-07-09T04:42:57.003Z,10.40
2018-07-09T04:45:25.729Z,10.50
2018-07-09T04:47:54.709Z,10.50
2018-07-09T04:50:23.375Z,10.60
2018-07-09T04:52:52.363Z,10.80
2018-07-09T04:55:21.111Z,10.90
2018-07-09T04:57:49.933Z,11.10
2018-07-09T05:00:18.641Z,11.20
2018-07-09T05:02:47.306Z,11.30
2018-07-09T05:05:15.976Z,11.50
2018-07-09T05:07:44.652Z,11.70
2018-07-09T05:10:13.396Z,11.80
2018-07-09T05:12:42.138Z,12.00
2018-07-09T05:15:10.874Z,12.20
2018-07-09T05:17:39.592Z,12.30
2018-07-09T05:20:08.581Z,12.50
2018-07-09T05:22:37.594Z,12.70
2018-07-09T05:25:06.516Z,12.90
2018-07-09T05:27:35.228Z,13.40
2018-07-09T05:30:04.038Z,14.30
2018-07-09T05:32:32.699Z,15.50
2018-07-09T05:35:01.443Z,16.60
2018-07-09T05:37:30.137Z,17.60
2018-07-09T05:39:58.909Z,18.50
2018-07-09T05:42:27.882Z,18.70
2018-07-09T05:44:56.594Z,19.50
2018-07-09T05:47:25.326Z,19.90
2018-07-09T05:52:22.604Z,21.00
2018-07-09T05:54:51.431Z,21.30
2018-07-09T05:57:20.166Z,21.50
2018-07-09T05:59:48.943Z,22.10
2018-07-09T06:02:17.654Z,21.80
2018-07-09T06:04:46.330Z,21.90
2018-07-09T06:07:15.020Z,22.10
2018-07-09T06:09:43.774Z,22.00
2018-07-09T06:12:12.440Z,22.50
2018-07-09T06:14:41.131Z,22.10
2018-07-09T06:17:09.870Z,22.10
2018-07-09T06:19:38.580Z,22.10
2018-07-09T06:22:07.339Z,22.00
2018-07-09T06:24:36.021Z,22.10
2018-07-09T06:27:04.762Z,22.30
2018-07-09T06:29:33.497Z,22.70
2018-07-09T06:32:02.187Z,22.80
2018-07-09T06:34:30.898Z,23.00
2018-07-09T06:36:59.603Z,23.60
2018-07-09T06:39:28.339Z,24.00
2018-07-09T06:41:56.998Z,23.70
2018-07-09T06:44:25.767Z,23.10
2018-07-09T06:46:54.458Z,23.00
2018-07-09T06:49:23.210Z,22.80
2018-07-09T06:51:52.143Z,22.50
2018-07-09T06:54:20.794Z,22.20
2018-07-09T06:56:49.740Z,21.50
2018-07-09T06:59:18.438Z,21.20
2018-07-09T07:01:47.140Z,21.60
2018-07-09T07:04:15.863Z,21.70
2018-07-09T07:06:44.498Z,21.80
2018-07-09T07:09:13.282Z,21.80
2018-07-09T07:11:41.835Z,21.80
2018-07-09T07:14:10.519Z,21.90
2018-07-09T07:16:39.199Z,22.00
2018-07-09T07:19:07.911Z,22.00
2018-07-09T07:21:36.604Z,22.20
2018-07-09T07:24:05.468Z,22.00
2018-07-09T07:26:34.176Z,22.20
2018-07-09T07:29:03.823Z,22.00
2018-07-09T07:31:32.721Z,22.40
2018-07-09T07:34:01.577Z,23.00
2018-07-09T07:36:30.601Z,23.80
2018-07-09T07:38:59.482Z,24.30
2018-07-09T07:41:28.211Z,24.70
2018-07-09T07:43:57.147Z,25.10
2018-07-09T07:46:26.080Z,25.30
2018-07-09T07:48:55.176Z,25.40
2018-07-09T07:51:24.618Z,25.40
2018-07-09T07:53:53.379Z,25.40
2018-07-09T07:56:22.531Z,25.40
2018-07-09T07:58:51.510Z,25.00
2018-07-09T08:01:20.267Z,25.40
2018-07-09T08:03:49.149Z,25.40
2018-07-09T08:06:18.135Z,25.20
2018-07-09T08:08:47.063Z,25.20
2018-07-09T08:11:16.110Z,24.90
2018-07-09T08:13:44.962Z,24.80
2018-07-09T08:16:13.846Z,23.90
2018-07-09T08:18:42.614Z,23.40
2018-07-09T08:21:11.357Z,22.90
2018-07-09T08:23:40.037Z,22.50
2018-07-09T08:26:08.776Z,22.60
2018-07-09T08:28:37.491Z,22.80
2018-07-09T08:31:06.317Z,23.00
2018-07-09T08:33:35.021Z,23.40
2018-07-09T08:36:03.738Z,23.30
2018-07-09T08:38:32.566Z,23.70
2018-07-09T08:41:01.341Z,24.30
2018-07-09T08:43:29.986Z,24.90
2018-07-09T08:45:58.694Z,25.10
2018-07-09T08:48:27.410Z,25.50
2018-07-09T08:50:56.062Z,26.30
2018-07-09T08:53:24.745Z,27.00
2018-07-09T08:55:53.444Z,28.40
2018-07-09T08:58:22.132Z,28.70
2018-07-09T09:00:51.020Z,28.30
2018-07-09T09:03:19.687Z,28.10
2018-07-09T09:05:48.366Z,27.90
2018-07-09T09:08:17.034Z,28.50
2018-07-09T09:10:45.698Z,28.90
2018-07-09T09:13:14.525Z,28.90
2018-07-09T09:15:43.264Z,28.60
2018-07-09T09:18:12.067Z,28.90
2018-07-09T09:20:40.787Z,29.00
2018-07-09T09:23:09.530Z,29.50
2018-07-09T09:25:38.427Z,29.70
2018-07-09T09:28:07.207Z,29.90
2018-07-09T09:30:35.901Z,30.80
2018-07-09T09:33:04.637Z,31.40
2018-07-09T09:35:33.350Z,30.80
2018-07-09T09:38:02.048Z,30.30
2018-07-09T09:40:30.712Z,31.20
2018-07-09T09:43:02.403Z,31.00
2018-07-09T09:45:31.133Z,31.30
2018-07-09T09:47:59.825Z,31.40
2018-07-09T09:50:28.777Z,31.20
2018-07-09T09:52:57.559Z,31.00
2018-07-09T09:55:26.278Z,30.20
2018-07-09T09:57:54.929Z,28.30
2018-07-09T10:00:27.980Z,27.80
2018-07-09T10:02:56.651Z,26.90
2018-07-09T10:05:25.492Z,26.80
2018-07-09T10:07:54.213Z,26.70
2018-07-09T10:10:22.884Z,26.50
2018-07-09T10:12:51.794Z,26.70
2018-07-09T10:15:20.475Z,26.60
2018-07-09T10:17:49.268Z,26.70
2018-07-09T10:20:18.001Z,26.80
2018-07-09T10:22:46.963Z,26.60
2018-07-09T10:25:15.597Z,27.00
2018-07-09T10:27:44.402Z,27.20
2018-07-09T10:30:13.131Z,27.30
2018-07-09T10:32:41.953Z,27.20
2018-07-09T10:35:10.911Z,27.40
2018-07-09T10:37:39.742Z,27.50
2018-07-09T10:40:08.454Z,26.70
2018-07-09T10:42:37.185Z,26.80
2018-07-09T10:45:06.107Z,27.40
2018-07-09T10:50:03.542Z,27.90
2018-07-09T10:52:32.279Z,27.60
2018-07-09T10:55:01.230Z,26.80
2018-07-09T10:57:30.052Z,26.50
2018-07-09T10:59:58.794Z,26.00
2018-07-09T11:02:27.596Z,25.80
2018-07-09T11:04:56.390Z,25.80
2018-07-09T11:07:25.050Z,25.80
2018-07-09T11:09:53.748Z,25.60
2018-07-09T11:12:22.468Z,25.20
2018-07-09T11:14:51.138Z,25.10
2018-07-09T11:17:19.796Z,24.70
2018-07-09T11:19:48.492Z,24.90
2018-07-09T11:22:17.173Z,25.30
2018-07-09T11:24:45.854Z,25.40
2018-07-09T11:29:42.868Z,25.20
2018-07-09T11:32:11.540Z,25.20
2018-07-09T11:34:40.207Z,25.00
2018-07-09T11:37:09.023Z,24.70
2018-07-09T11:39:37.781Z,24.50
2018-07-09T11:42:06.530Z,23.90
2018-07-09T11:44:35.327Z,23.70
2018-07-09T11:47:03.988Z,23.50
2018-07-09T11:49:32.667Z,23.30
2018-07-09T11:52:01.328Z,23.40
2018-07-09T11:54:30.027Z,23.40
2018-07-09T11:56:58.690Z,23.30
2018-07-09T11:59:27.419Z,23.20
2018-07-09T12:01:56.084Z,23.40
2018-07-09T12:04:24.781Z,23.30
2018-07-09T12:06:53.470Z,23.30
2018-07-09T12:09:22.207Z,23.30
2018-07-09T12:11:51.071Z,23.40
2018-07-09T12:14:19.792Z,23.90
2018-07-09T12:16:48.510Z,24.10
2018-07-09T12:19:17.220Z,24.30
2018-07-09T12:21:45.988Z,24.60
2018-07-09T12:24:14.613Z,24.40
2018-07-09T12:26:43.349Z,25.10
2018-07-09T12:29:12.102Z,25.40
2018-07-09T12:31:40.704Z,25.70
2018-07-09T12:34:09.382Z,25.80
2018-07-09T12:36:38.085Z,26.30
2018-07-09T12:39:07.412Z,26.80
2018-07-09T12:41:36.112Z,26.60
2018-07-09T12:44:04.886Z,27.00
2018-07-09T12:46:33.597Z,27.10
2018-07-09T12:49:02.807Z,26.90
2018-07-09T12:53:59.800Z,26.50
2018-07-09T12:56:28.453Z,26.70
2018-07-09T12:58:57.130Z,26.60
2018-07-09T13:01:25.822Z,26.30
2018-07-09T13:03:54.509Z,26.10
2018-07-09T13:06:23.272Z,25.70
2018-07-09T13:08:51.951Z,25.50
2018-07-09T13:11:20.650Z,25.40
2018-07-09T13:13:49.447Z,25.30
2018-07-09T13:16:18.175Z,25.30
2018-07-09T13:18:46.884Z,25.70
2018-07-09T13:21:15.583Z,25.80
2018-07-09T13:23:44.297Z,25.90
2018-07-09T13:26:13.063Z,26.20
2018-07-09T13:28:41.774Z,26.30
2018-07-09T13:31:11.369Z,26.70
2018-07-09T13:33:40.107Z,26.80
2018-07-09T13:36:08.786Z,26.80
2018-07-09T13:38:37.545Z,26.50
2018-07-09T13:41:06.211Z,26.40
2018-07-09T13:43:34.996Z,26.30
2018-07-09T13:46:03.827Z,26.10
2018-07-09T13:48:32.561Z,25.80
2018-07-09T13:51:01.284Z,25.80
2018-07-09T13:55:58.255Z,25.50
2018-07-09T13:58:27.429Z,25.30
2018-07-09T14:00:56.127Z,25.20
2018-07-09T14:03:24.815Z,25.00
2018-07-09T14:05:53.502Z,25.20
2018-07-09T14:10:50.545Z,24.90
2018-07-09T14:13:19.282Z,24.70
2018-07-09T14:15:47.952Z,24.50
2018-07-09T14:18:16.714Z,24.50
2018-07-09T14:20:46.082Z,24.40
2018-07-09T14:23:16.264Z,24.40
2018-07-09T14:25:45.007Z,24.40
2018-07-09T14:28:13.742Z,24.50
2018-07-09T14:30:42.421Z,24.40
2018-07-09T14:33:11.230Z,24.40
2018-07-09T14:35:39.997Z,24.60
2018-07-09T14:38:08.641Z,24.50
2018-07-09T14:40:37.355Z,24.50
2018-07-09T14:43:06.114Z,24.50
2018-07-09T14:45:34.863Z,24.40
2018-07-09T14:48:03.560Z,24.00
2018-07-09T14:50:32.242Z,23.80
2018-07-09T14:53:00.969Z,23.50
2018-07-09T14:55:29.759Z,23.20
2018-07-09T14:57:58.471Z,22.80
2018-07-09T15:00:27.110Z,22.20
2018-07-09T15:02:55.881Z,21.80
2018-07-09T15:05:24.522Z,21.70
2018-07-09T15:07:53.166Z,21.30
2018-07-09T15:10:21.897Z,21.20
2018-07-09T15:12:50.607Z,21.20
2018-07-09T15:15:19.302Z,21.20
2018-07-09T15:17:48.057Z,21.30
2018-07-09T15:20:16.733Z,21.40
2018-07-09T15:22:45.436Z,21.70
2018-07-09T15:25:14.142Z,22.00
2018-07-09T15:27:43.056Z,22.30
2018-07-09T15:30:11.936Z,22.50
2018-07-09T15:32:40.762Z,22.80
2018-07-09T15:35:09.567Z,22.90
2018-07-09T15:37:38.271Z,23.20
2018-07-09T15:40:07.213Z,23.10
2018-07-09T15:42:36.294Z,23.00
2018-07-09T15:45:05.115Z,22.80
2018-07-09T15:47:34.063Z,22.90
2018-07-09T15:50:02.772Z,22.90
2018-07-09T15:52:31.461Z,22.90
2018-07-09T15:55:00.156Z,23.10
2018-07-09T15:57:28.889Z,23.20
2018-07-09T15:59:57.579Z,23.20
2018-07-09T16:02:26.246Z,23.30
2018-07-09T16:07:23.215Z,23.50
2018-07-09T16:09:52.068Z,23.70
2018-07-09T16:12:20.778Z,24.00
2018-07-09T16:14:49.658Z,24.10
2018-07-09T16:17:18.355Z,24.00
2018-07-09T16:19:47.000Z,23.90
2018-07-09T16:22:15.658Z,24.00
2018-07-09T16:24:44.456Z,23.90
2018-07-09T16:27:13.141Z,23.60
2018-07-09T16:29:41.850Z,23.30
2018-07-09T16:32:10.553Z,23.00
2018-07-09T16:34:39.202Z,22.90
2018-07-09T16:37:07.934Z,22.40
2018-07-09T16:39:36.641Z,22.20
2018-07-09T16:42:05.367Z,22.00
2018-07-09T16:44:34.024Z,22.00
2018-07-09T16:47:02.765Z,21.80
2018-07-09T16:49:31.461Z,21.60
2018-07-09T16:52:00.215Z,21.50
2018-07-09T16:54:28.937Z,21.40
2018-07-09T16:56:57.663Z,21.50
2018-07-09T16:59:26.365Z,21.60
2018-07-09T17:01:55.233Z,21.90
2018-07-09T17:04:23.929Z,22.10
2018-07-09T17:06:52.592Z,22.30
2018-07-09T17:11:49.705Z,22.50
2018-07-09T17:14:18.455Z,22.60
2018-07-09T17:16:47.929Z,22.70
2018-07-09T17:19:16.704Z,22.80
2018-07-09T17:21:45.389Z,22.90
2018-07-09T17:24:14.121Z,23.00
2018-07-09T17:26:42.838Z,22.80
2018-07-09T17:29:11.523Z,22.90
2018-07-09T17:31:40.225Z,22.80
2018-07-09T17:34:08.909Z,22.60
2018-07-09T17:36:37.645Z,22.50
2018-07-09T17:39:06.935Z,22.40
2018-07-09T17:41:35.728Z,22.30
2018-07-09T17:44:04.494Z,22.30
2018-07-09T17:46:33.174Z,22.30
2018-07-09T17:49:01.891Z,22.20
2018-07-09T17:51:30.588Z,22.10
2018-07-09T17:53:59.379Z,22.00
2018-07-09T17:56:28.096Z,21.90
2018-07-09T17:58:56.817Z,21.80
2018-07-09T18:01:25.492Z,21.60
2018-07-09T18:03:54.259Z,21.60
2018-07-09T18:06:23.009Z,21.50
2018-07-09T18:08:52.053Z,21.30
2018-07-09T18:11:21.020Z,21.30
2018-07-09T18:13:50.344Z,21.30
2018-07-09T18:16:20.095Z,21.20
2018-07-09T18:18:48.924Z,21.20
2018-07-09T18:21:17.765Z,21.20
2018-07-09T18:23:46.555Z,21.10
2018-07-09T18:26:15.306Z,21.00
2018-07-09T18:28:44.238Z,20.90
2018-07-09T18:31:13.188Z,20.90
2018-07-09T18:33:41.925Z,20.80
2018-07-09T18:36:10.783Z,20.80
2018-07-09T18:38:39.936Z,20.70
2018-07-09T18:41:08.794Z,20.60
2018-07-09T18:43:37.672Z,20.50
2018-07-09T18:46:06.626Z,20.50
2018-07-09T18:48:35.406Z,20.40
2018-07-09T18:51:04.253Z,20.40
2018-07-09T18:56:01.301Z,20.30
2018-07-09T18:58:30.231Z,20.30
2018-07-09T19:00:59.099Z,20.30
2018-07-09T19:03:27.841Z,20.10
2018-07-09T19:07:04.891Z,20.00
2018-07-09T19:09:34.746Z,19.90
2018-07-09T19:12:05.028Z,19.70
2018-07-09T19:14:42.170Z,19.60
2018-07-09T19:18:27.513Z,19.60
2018-07-09T19:21:34.833Z,19.40
2018-07-09T19:24:03.419Z,19.30
2018-07-09T19:26:31.082Z,19.30
2018-07-09T19:28:58.659Z,19.20
2018-07-09T19:31:26.343Z,19.00
2018-07-09T19:33:53.796Z,18.90
2018-07-09T19:36:21.276Z,18.80
2018-07-09T19:38:48.738Z,18.70
2018-07-09T19:41:16.477Z,18.70
2018-07-09T19:43:44.161Z,18.70
2018-07-09T19:46:11.645Z,18.60
2018-07-09T19:48:39.146Z,18.50
2018-07-09T19:51:06.622Z,18.40
2018-07-09T19:53:34.172Z,18.30
2018-07-09T19:56:01.679Z,18.30
2018-07-09T19:58:29.173Z,18.30
2018-07-09T20:00:56.878Z,18.20
2018-07-09T20:03:24.403Z,18.20
2018-07-09T20:05:52.172Z,18.20
2018-07-09T20:08:20.109Z,18.20
2018-07-09T20:10:53.056Z,18.20
2018-07-09T20:13:25.843Z,18.20
2018-07-09T20:15:58.695Z,18.20
2018-07-09T20:18:26.355Z,18.20
2018-07-09T20:23:21.891Z,18.10
2018-07-09T20:25:49.475Z,18.00
2018-07-09T20:28:17.184Z,18.00
2018-07-09T20:30:44.980Z,18.00
2018-07-09T20:33:12.457Z,17.90
2018-07-09T20:35:39.889Z,17.90
2018-07-09T20:38:07.461Z,17.90
2018-07-09T20:40:34.976Z,17.80
2018-07-09T20:43:02.462Z,17.80
2018-07-09T20:47:57.867Z,17.70
2018-07-09T20:50:25.295Z,17.60
2018-07-09T20:52:52.786Z,17.60
2018-07-09T20:55:20.245Z,17.50
2018-07-09T20:57:47.729Z,17.50
2018-07-09T21:00:15.233Z,17.40
2018-07-09T21:02:42.666Z,17.40
2018-07-09T21:05:10.090Z,17.40
2018-07-09T21:07:37.566Z,17.40
2018-07-09T21:10:04.995Z,17.40
2018-07-09T21:12:35.482Z,17.40
2018-07-09T21:15:03.151Z,17.40
2018-07-09T21:17:30.619Z,17.40
2018-07-09T21:19:58.121Z,17.40
2018-07-09T21:24:53.254Z,17.30
2018-07-09T21:27:20.726Z,17.30
2018-07-09T21:29:48.143Z,17.20
2018-07-09T21:32:15.623Z,17.10
2018-07-09T21:34:43.062Z,16.90
2018-07-09T21:37:10.541Z,16.70
2018-07-09T21:39:37.995Z,16.60
2018-07-09T21:42:05.421Z,16.50
2018-07-09T21:44:32.922Z,16.40
2018-07-09T21:47:00.397Z,16.30
2018-07-09T21:49:27.822Z,16.20
2018-07-09T21:51:55.287Z,16.10
2018-07-09T21:54:22.725Z,16.00
2018-07-09T21:56:50.263Z,16.00
2018-07-09T21:59:17.839Z,16.00
2018-07-09T22:01:45.334Z,16.00
2018-07-09T22:04:12.780Z,16.00
2018-07-09T22:06:40.204Z,16.00
2018-07-09T22:09:07.662Z,16.00
2018-07-09T22:11:35.511Z,15.90
2018-07-09T22:14:02.985Z,16.00
2018-07-09T22:16:30.408Z,16.00
2018-07-09T22:18:57.909Z,15.90
2018-07-09T22:21:25.340Z,15.90
2018-07-09T22:23:52.800Z,15.90
2018-07-09T22:26:20.207Z,15.90
2018-07-09T22:28:47.740Z,15.80
2018-07-09T22:31:16.450Z,15.80
2018-07-09T22:33:45.104Z,15.80
2018-07-09T22:36:13.805Z,15.80
2018-07-09T22:38:42.466Z,15.70
2018-07-09T22:41:11.168Z,15.80
2018-07-09T22:43:50.956Z,15.70
2018-07-09T22:46:19.659Z,15.70
2018-07-09T22:48:48.426Z,15.70
2018-07-09T22:51:17.238Z,15.70
2018-07-09T22:53:45.845Z,15.70
2018-07-09T22:56:15.075Z,15.70
2018-07-09T22:58:43.872Z,15.60
2018-07-09T23:01:12.568Z,15.70
2018-07-09T23:03:41.286Z,15.70
2018-07-09T23:06:09.994Z,15.60
2018-07-09T23:08:38.694Z,15.50
2018-07-09T23:11:19.134Z,15.50
2018-07-09T23:14:06.554Z,15.60
2018-07-09T23:16:47.253Z,15.50
2018-07-09T23:19:28.095Z,15.50
2018-07-09T23:22:07.822Z,15.50
2018-07-09T23:24:35.263Z,15.50
2018-07-09T23:27:02.731Z,15.40
2018-07-09T23:29:30.159Z,15.50
2018-07-09T23:31:57.634Z,15.50
2018-07-09T23:34:25.068Z,15.50
2018-07-09T23:36:52.537Z,15.50
2018-07-09T23:39:20.020Z,15.50
2018-07-09T23:41:47.509Z,15.40
2018-07-09T23:44:14.968Z,15.40
2018-07-09T23:46:42.448Z,15.40
2018-07-09T23:49:09.923Z,15.40
2018-07-09T23:51:37.407Z,15.30
2018-07-09T23:54:04.862Z,15.30
2018-07-09T23:56:45.046Z,15.40
